Time;durP1;ratioP1;P1;durP2;ratioP2;P2;SDS_P1;SDS_P2;PMS_P1;PMS_P2;Temp;Humidity;BMP_temperature;BMP_pressure;BME280_temperature;BME280_humidity;BME280_pressure;Samples;Min_cycle;Max_cycle;Signal;HPM_P1;HPM_P2
2023/03/08 00:02:25;;;;;;;13.15;7.50;;;;;;;1.49;100.00;99931.88;4881845;29;20111;-85
2023/03/08 00:04:54;;;;;;;10.75;7.10;;;;;;;1.46;100.00;99935.31;4885041;29;20036;-85
2023/03/08 00:07:19;;;;;;;15.35;7.90;;;;;;;1.05;100.00;99931.47;4884776;29;20037;-86
2023/03/08 00:09:45;;;;;;;10.90;6.65;;;;;;;1.48;100.00;99938.53;4869665;29;20030;-86
2023/03/08 00:12:10;;;;;;;10.45;7.32;;;;;;;1.68;100.00;99934.91;4867156;29;20088;-85
2023/03/08 00:14:36;;;;;;;12.98;7.50;;;;;;;1.65;100.00;99924.56;4868596;29;20025;-86
2023/03/08 00:17:01;;;;;;;14.85;8.02;;;;;;;1.60;100.00;99922.00;4885264;29;20024;-87
2023/03/08 00:19:27;;;;;;;11.93;6.97;;;;;;;1.61;100.00;99926.41;4869379;29;20036;-85
2023/03/08 00:21:52;;;;;;;13.27;7.35;;;;;;;1.34;100.00;99922.28;4868715;29;20035;-86
2023/03/08 00:24:18;;;;;;;12.65;7.75;;;;;;;1.49;100.00;99921.63;4869635;29;20036;-84
2023/03/08 00:26:44;;;;;;;10.40;7.95;;;;;;;1.63;100.00;99927.66;4868658;29;20032;-86
2023/03/08 00:29:10;;;;;;;12.82;7.38;;;;;;;1.23;100.00;99929.38;4870262;29;20397;-85
2023/03/08 00:31:35;;;;;;;11.30;6.60;;;;;;;1.35;100.00;99924.72;4884151;29;20108;-85
2023/03/08 00:34:00;;;;;;;12.35;7.35;;;;;;;1.61;100.00;99923.63;4883412;29;20032;-85
2023/03/08 00:36:26;;;;;;;12.02;7.10;;;;;;;1.65;100.00;99930.09;4865421;29;20029;-85
2023/03/08 00:38:51;;;;;;;11.10;7.07;;;;;;;1.55;100.00;99925.00;4869671;29;20036;-86
2023/03/08 00:41:17;;;;;;;13.52;7.30;;;;;;;1.49;100.00;99915.31;4882928;29;20047;-86
2023/03/08 00:43:43;;;;;;;10.25;6.32;;;;;;;1.49;100.00;99910.59;4885298;29;20028;-85
2023/03/08 00:46:09;;;;;;;11.95;6.88;;;;;;;1.58;100.00;99924.31;4870073;29;20149;-86
2023/03/08 00:48:34;;;;;;;14.50;6.78;;;;;;;1.67;100.00;99927.78;4871528;29;20048;-86
2023/03/08 00:51:00;;;;;;;13.25;6.13;;;;;;;1.26;100.00;99934.19;4870477;29;20032;-85
2023/03/08 00:53:26;;;;;;;12.77;6.55;;;;;;;1.49;100.00;99921.63;4868877;29;20541;-85
2023/03/08 00:55:56;;;;;;;11.48;7.13;;;;;;;1.15;100.00;99912.56;4886556;29;20028;-85
2023/03/08 00:58:23;;;;;;;13.77;6.07;;;;;;;1.42;100.00;99916.69;4880073;29;20043;-86
2023/03/08 01:00:48;;;;;;;10.45;6.65;;;;;;;1.40;100.00;99907.94;4886294;29;20045;-86
2023/03/08 01:03:15;;;;;;;11.20;5.85;;;;;;;1.56;100.00;99915.56;4884133;29;20036;-86
2023/03/08 01:05:42;;;;;;;9.82;6.38;;;;;;;1.04;100.00;99905.84;4868675;29;20028;-85
2023/03/08 01:08:08;;;;;;;9.93;5.88;;;;;;;1.42;100.00;99911.16;4884159;29;21329;-85
2023/03/08 01:10:34;;;;;;;15.70;6.25;;;;;;;1.57;100.00;99906.16;4870817;29;20036;-85
2023/03/08 01:13:00;;;;;;;8.63;5.10;;;;;;;1.39;100.00;99906.34;4884217;29;20032;-86
2023/03/08 01:15:25;;;;;;;8.75;4.93;;;;;;;1.56;100.00;99913.63;4859110;29;20035;-86
2023/03/08 01:17:51;;;;;;;9.75;5.70;;;;;;;1.62;100.00;99906.75;4855134;29;20105;-85
2023/03/08 01:20:16;;;;;;;12.02;6.03;;;;;;;1.68;100.00;99910.06;4857233;29;20028;-86
2023/03/08 01:22:42;;;;;;;14.38;6.13;;;;;;;1.46;100.00;99893.97;4856750;29;20036;-86
2023/03/08 01:25:07;;;;;;;9.50;5.53;;;;;;;1.52;100.00;99898.09;4864055;29;20068;-86
2023/03/08 01:27:33;;;;;;;9.52;5.20;;;;;;;1.38;100.00;99895.66;4865652;29;20024;-85
2023/03/08 01:29:58;;;;;;;8.38;5.30;;;;;;;1.51;100.00;99897.28;4866873;29;20123;-85
2023/03/08 01:32:24;;;;;;;9.52;5.50;;;;;;;1.67;100.00;99894.69;4874923;29;20032;-86
2023/03/08 01:34:49;;;;;;;9.57;5.30;;;;;;;1.70;100.00;99885.72;4873674;29;20793;-86
2023/03/08 01:37:14;;;;;;;14.82;6.38;;;;;;;1.70;100.00;99879.41;4875721;29;20056;-86
2023/03/08 01:39:40;;;;;;;8.95;4.88;;;;;;;1.60;100.00;99886.16;4862565;29;20032;-86
2023/03/08 01:42:06;;;;;;;9.85;5.32;;;;;;;1.54;100.00;99868.22;4860418;29;20148;-85
2023/03/08 01:44:48;;;;;;;8.18;5.32;;;;;;;1.47;100.00;99868.78;4872614;29;20041;-85
2023/03/08 01:47:19;;;;;;;6.90;4.70;;;;;;;1.49;100.00;99869.25;4876788;29;20029;-85
2023/03/08 01:49:44;;;;;;;8.48;5.55;;;;;;;1.33;100.00;99869.09;4872980;29;20128;-86
2023/03/08 01:52:13;;;;;;;10.23;5.55;;;;;;;1.55;100.00;99861.56;4860673;29;20036;-85
2023/03/08 01:54:55;;;;;;;7.90;5.22;;;;;;;1.52;100.00;99865.00;4877892;29;20759;-86
2023/03/08 01:57:25;;;;;;;11.20;5.53;;;;;;;1.53;100.00;99855.59;4873327;29;20033;-86
2023/03/08 01:59:54;;;;;;;12.68;5.55;;;;;;;1.23;100.00;99864.00;4859652;29;20076;-86
2023/03/08 02:02:24;;;;;;;10.73;5.18;;;;;;;1.39;100.00;99867.75;4870627;29;20060;-85
2023/03/08 02:04:50;;;;;;;9.35;5.05;;;;;;;1.45;100.00;99859.25;4874647;29;20051;-86
2023/03/08 02:07:16;;;;;;;13.10;5.18;;;;;;;1.55;100.00;99873.38;4857431;29;20032;-86
2023/03/08 02:09:41;;;;;;;12.35;5.82;;;;;;;1.61;100.00;99873.97;4869738;29;20040;-85
2023/03/08 02:12:11;;;;;;;7.55;5.05;;;;;;;1.34;100.00;99865.19;4862966;29;20119;-85
2023/03/08 02:14:37;;;;;;;8.25;5.07;;;;;;;1.47;100.00;99867.97;4859855;29;20032;-85
2023/03/08 02:17:02;;;;;;;7.35;5.00;;;;;;;0.44;100.00;99871.31;4877361;29;20037;-85
2023/03/08 02:19:40;;;;;;;10.73;5.63;;;;;;;1.05;100.00;99857.03;4880408;29;20386;-85
2023/03/08 02:22:08;;;;;;;10.25;5.78;;;;;;;0.97;100.00;99864.25;4877305;29;20040;-85
2023/03/08 02:24:33;;;;;;;10.35;5.40;;;;;;;1.19;100.00;99863.06;4865147;29;20036;-86
2023/03/08 02:27:05;;;;;;;7.55;5.35;;;;;;;1.38;100.00;99859.81;4878043;29;20618;-85
2023/03/08 02:29:30;;;;;;;10.07;6.07;;;;;;;1.47;100.00;99856.94;4871818;29;20055;-87
2023/03/08 02:31:56;;;;;;;12.75;6.18;;;;;;;1.46;100.00;99861.66;4864541;29;21597;-86
2023/03/08 02:34:21;;;;;;;11.50;5.85;;;;;;;1.46;100.00;99847.06;4876707;29;20104;-86
2023/03/08 02:36:46;;;;;;;7.75;4.80;;;;;;;1.42;100.00;99839.47;4861808;29;20041;-86
2023/03/08 02:39:12;;;;;;;7.30;5.55;;;;;;;1.43;100.00;99837.50;4859862;29;20033;-86
2023/03/08 02:41:37;;;;;;;10.35;5.43;;;;;;;1.33;100.00;99824.16;4861581;29;20976;-86
2023/03/08 02:44:03;;;;;;;10.30;5.38;;;;;;;1.45;100.00;99820.63;4875294;29;20032;-85
2023/03/08 02:46:28;;;;;;;9.77;5.18;;;;;;;1.21;100.00;99819.44;4860312;29;20151;-86
2023/03/08 02:48:53;;;;;;;9.02;5.88;;;;;;;1.31;100.00;99810.75;4877027;29;20369;-85
2023/03/08 02:51:19;;;;;;;7.97;4.60;;;;;;;1.36;100.00;99810.50;4876865;29;20036;-85
2023/03/08 02:53:44;;;;;;;8.57;4.85;;;;;;;1.39;100.00;99801.56;4874559;29;20128;-86
2023/03/08 02:56:10;;;;;;;7.60;4.65;;;;;;;1.44;100.00;99805.25;4871292;29;20047;-86
2023/03/08 02:58:35;;;;;;;7.20;4.20;;;;;;;1.45;100.00;99806.84;4870935;29;20497;-86
2023/03/08 03:01:00;;;;;;;13.02;5.65;;;;;;;1.32;100.00;99804.06;4858517;29;20059;-86
2023/03/08 03:03:26;;;;;;;6.55;4.43;;;;;;;1.38;100.00;99804.66;4857353;29;20805;-85
2023/03/08 03:05:51;;;;;;;9.95;4.57;;;;;;;1.38;100.00;99810.97;4877755;29;20116;-86
2023/03/08 03:08:17;;;;;;;5.07;4.57;;;;;;;1.33;100.00;99808.44;4875515;29;20125;-85
2023/03/08 03:10:42;;;;;;;7.93;4.07;;;;;;;1.37;100.00;99808.53;4860454;29;20786;-85
2023/03/08 03:13:08;;;;;;;6.45;4.20;;;;;;;1.42;100.00;99794.56;4874171;29;20106;-86
2023/03/08 03:15:38;;;;;;;10.30;4.35;;;;;;;1.45;100.00;99807.63;4857737;29;20043;-85
2023/03/08 03:18:04;;;;;;;4.95;4.45;;;;;;;1.45;100.00;99813.16;4857633;29;20450;-87
2023/03/08 03:20:31;;;;;;;6.20;3.92;;;;;;;1.42;100.00;99808.34;4870623;29;20127;-86
2023/03/08 03:22:57;;;;;;;8.30;4.47;;;;;;;1.32;100.00;99812.34;4877427;29;20857;-86
2023/03/08 03:25:23;;;;;;;8.02;4.22;;;;;;;1.26;100.00;99813.69;4870897;29;20040;-86
2023/03/08 03:27:48;;;;;;;7.22;4.43;;;;;;;1.11;100.00;99814.34;4862948;29;20032;-85
2023/03/08 03:30:14;;;;;;;8.38;4.63;;;;;;;1.26;100.00;99815.66;4866714;29;20321;-86
2023/03/08 03:32:39;;;;;;;8.23;4.72;;;;;;;1.22;100.00;99818.28;4874366;29;20064;-85
2023/03/08 03:35:05;;;;;;;6.90;4.07;;;;;;;1.15;100.00;99816.09;4853962;29;20533;-87
2023/03/08 03:37:33;;;;;;;8.35;5.03;;;;;;;1.27;100.00;99812.56;4870540;29;20043;-86
2023/03/08 03:39:58;;;;;;;8.30;4.70;;;;;;;1.30;100.00;99814.63;4860199;29;20055;-86
2023/03/08 03:42:24;;;;;;;6.50;4.32;;;;;;;1.33;100.00;99819.47;4875707;29;20972;-86
2023/03/08 03:44:49;;;;;;;5.70;3.78;;;;;;;1.32;100.00;99817.03;4856854;29;20091;-86
2023/03/08 03:47:15;;;;;;;5.55;3.92;;;;;;;1.35;100.00;99814.41;4859425;29;20568;-85
2023/03/08 03:49:40;;;;;;;4.85;3.47;;;;;;;1.29;100.00;99812.22;4876159;29;20905;-86
2023/03/08 03:52:06;;;;;;;5.45;3.80;;;;;;;1.30;100.00;99805.56;4879012;29;20044;-85
2023/03/08 03:54:31;;;;;;;11.48;4.35;;;;;;;1.32;100.00;99798.53;4858398;29;20191;-86
2023/03/08 03:56:57;;;;;;;8.15;4.32;;;;;;;1.30;100.00;99809.09;4877531;29;20036;-85
2023/03/08 03:59:24;;;;;;;6.45;3.17;;;;;;;1.08;100.00;99815.03;4858368;29;21344;-85
2023/03/08 04:01:49;;;;;;;5.72;3.80;;;;;;;1.25;100.00;99811.31;4857519;29;20055;-86
2023/03/08 04:04:15;;;;;;;7.32;3.65;;;;;;;0.78;100.00;99798.63;4844092;29;20663;-85
2023/03/08 04:06:40;;;;;;;5.13;3.22;;;;;;;1.08;100.00;99796.56;4840920;29;20028;-85
2023/03/08 04:09:12;;;;;;;10.48;3.90;;;;;;;1.13;100.00;99788.06;4844776;29;20108;-86
2023/03/08 04:11:39;;;;;;;5.68;4.72;;;;;;;1.15;100.00;99777.50;4854965;29;20091;-86
2023/03/08 04:14:04;;;;;;;6.97;3.83;;;;;;;1.13;100.00;99790.81;4842985;29;20209;-86
2023/03/08 04:16:35;;;;;;;6.63;3.58;;;;;;;1.20;100.00;99787.50;4855588;29;20131;-85
2023/03/08 04:19:04;;;;;;;6.65;3.90;;;;;;;1.13;100.00;99788.06;4842527;29;20033;-86
2023/03/08 04:21:30;;;;;;;7.95;3.90;;;;;;;0.95;100.00;99781.13;4841276;29;20132;-85
2023/03/08 04:23:56;;;;;;;6.18;3.95;;;;;;;1.05;100.00;99768.88;4854268;29;21163;-84
2023/03/08 04:26:23;;;;;;;8.35;3.90;;;;;;;0.98;100.00;99772.97;4840275;29;20256;-85
2023/03/08 04:28:48;;;;;;;5.25;3.25;;;;;;;1.13;100.00;99770.72;4854168;29;20033;-85
2023/03/08 04:31:17;;;;;;;9.32;3.60;;;;;;;1.10;100.00;99765.91;4835975;29;20048;-86
2023/03/08 04:33:43;;;;;;;5.00;3.25;;;;;;;1.16;100.00;99759.81;4851942;29;20089;-86
2023/03/08 04:36:09;;;;;;;8.73;3.80;;;;;;;1.18;100.00;99762.22;4854028;29;20032;-86
2023/03/08 04:38:35;;;;;;;4.57;3.50;;;;;;;1.18;100.00;99759.47;4853927;29;21722;-86
2023/03/08 04:41:01;;;;;;;5.50;3.97;;;;;;;1.15;100.00;99751.91;4848897;29;20131;-86
2023/03/08 04:43:31;;;;;;;8.13;4.88;;;;;;;1.08;100.00;99751.66;4852797;29;20550;-86
2023/03/08 04:45:57;;;;;;;5.38;3.88;;;;;;;1.11;100.00;99750.97;4838816;29;20028;-86
2023/03/08 04:48:22;;;;;;;5.88;3.58;;;;;;;1.06;100.00;99748.44;4851551;29;20114;-85
2023/03/08 04:50:56;;;;;;;5.22;4.30;;;;;;;1.00;100.00;99745.88;4852161;29;20048;-85
2023/03/08 04:53:22;;;;;;;7.82;4.47;;;;;;;0.95;100.00;99743.38;4836493;29;20128;-85
2023/03/08 04:55:48;;;;;;;5.03;4.47;;;;;;;0.84;100.00;99736.66;4848410;29;20036;-85
2023/03/08 04:58:13;;;;;;;5.55;4.78;;;;;;;0.70;100.00;99741.69;4852337;29;20583;-86
2023/03/08 05:00:39;;;;;;;10.18;4.57;;;;;;;0.78;100.00;99732.50;4836519;29;20045;-85
2023/03/08 05:03:05;;;;;;;9.57;4.50;;;;;;;0.65;100.00;99728.13;4849426;29;20059;-85
2023/03/08 05:05:30;;;;;;;7.88;4.43;;;;;;;0.64;100.00;99740.28;4847148;29;20040;-85
2023/03/08 05:07:56;;;;;;;8.65;4.85;;;;;;;0.64;100.00;99732.03;4846898;29;20032;-86
2023/03/08 05:10:21;;;;;;;5.97;5.10;;;;;;;0.76;100.00;99732.88;4851504;29;20477;-86
2023/03/08 05:12:46;;;;;;;7.03;4.32;;;;;;;0.79;100.00;99726.66;4838326;29;20135;-85
2023/03/08 05:15:12;;;;;;;8.60;6.13;;;;;;;0.43;100.00;99716.34;4828822;29;20065;-85
2023/03/08 05:17:37;;;;;;;9.32;5.45;;;;;;;0.69;100.00;99723.53;4840690;29;20174;-84
2023/03/08 05:20:03;;;;;;;10.93;6.00;;;;;;;0.50;100.00;99719.34;4848973;29;20044;-86
2023/03/08 05:22:28;;;;;;;7.15;5.03;;;;;;;0.67;100.00;99709.31;4861965;29;20047;-86
2023/03/08 05:24:54;;;;;;;12.18;5.05;;;;;;;0.70;100.00;99703.13;4847096;29;20400;-85
2023/03/08 05:27:19;;;;;;;9.05;5.93;;;;;;;0.76;100.00;99701.75;4852314;29;20025;-85
2023/03/08 05:29:45;;;;;;;13.60;7.30;;;;;;;0.61;100.00;99697.69;4853220;29;20060;-85
2023/03/08 05:32:11;;;;;;;11.93;7.10;;;;;;;0.57;100.00;99705.84;4848954;29;20052;-86
2023/03/08 05:34:36;;;;;;;12.90;7.97;;;;;;;0.63;100.00;99694.59;4854295;29;20790;-86
2023/03/08 05:37:02;;;;;;;12.00;8.63;;;;;;;0.71;100.00;99702.78;4865198;29;20093;-86
2023/03/08 05:39:29;;;;;;;15.55;8.23;;;;;;;0.79;100.00;99690.06;4858166;29;20562;-86
2023/03/08 05:41:54;;;;;;;15.65;7.82;;;;;;;0.90;100.00;99696.72;4847574;29;20896;-86
2023/03/08 05:44:20;;;;;;;15.77;8.82;;;;;;;0.90;100.00;99696.72;4856908;29;20112;-84
2023/03/08 05:46:48;;;;;;;14.85;9.27;;;;;;;0.84;100.00;99684.31;4847843;29;20060;-85
2023/03/08 05:49:13;;;;;;;15.25;9.75;;;;;;;0.87;100.00;99675.38;4848977;29;20031;-85
2023/03/08 05:51:39;;;;;;;12.93;9.75;;;;;;;0.88;100.00;99673.44;4864083;29;20036;-85
2023/03/08 05:54:04;;;;;;;15.45;9.23;;;;;;;0.92;100.00;99666.88;4852746;29;20040;-84
2023/03/08 05:56:30;;;;;;;13.75;9.70;;;;;;;0.88;100.00;99660.44;4872590;29;20049;-85
2023/03/08 05:58:55;;;;;;;18.67;9.80;;;;;;;0.80;100.00;99653.09;4866222;29;20030;-85
2023/03/08 06:01:23;;;;;;;16.73;11.10;;;;;;;0.78;100.00;99649.88;4871027;29;20139;-84
2023/03/08 06:03:54;;;;;;;21.45;10.00;;;;;;;0.71;100.00;99660.66;4869345;29;20447;-84
2023/03/08 06:06:21;;;;;;;16.45;10.75;;;;;;;0.58;100.00;99641.34;4891694;29;20029;-85
2023/03/08 06:08:47;;;;;;;18.15;12.48;;;;;;;0.64;100.00;99638.41;4893991;29;20056;-85
2023/03/08 06:11:14;;;;;;;19.70;12.95;;;;;;;0.60;100.00;99638.28;4881494;29;20072;-85
2023/03/08 06:13:40;;;;;;;22.85;12.80;;;;;;;0.73;100.00;99637.13;4869530;29;20037;-85
2023/03/08 06:16:06;;;;;;;20.83;12.63;;;;;;;0.56;100.00;99642.84;4885231;29;20088;-85
2023/03/08 06:18:32;;;;;;;22.55;12.88;;;;;;;0.48;100.00;99639.03;4882803;29;20032;-85
2023/03/08 06:21:02;;;;;;;25.10;13.82;;;;;;;0.72;100.00;99645.75;4872457;29;20156;-85
2023/03/08 06:23:29;;;;;;;22.52;13.85;;;;;;;0.60;100.00;99644.56;4876562;29;20029;-85
2023/03/08 06:25:55;;;;;;;31.23;14.85;;;;;;;0.63;100.00;99645.84;4890748;29;20370;-85
2023/03/08 06:28:21;;;;;;;29.48;15.18;;;;;;;0.48;100.00;99635.47;4878595;29;20393;-85
2023/03/08 06:30:50;;;;;;;28.90;17.02;;;;;;;0.59;100.00;99631.97;4884592;29;20485;-84
2023/03/08 06:33:17;;;;;;;33.13;18.75;;;;;;;0.67;100.00;99632.19;4880162;29;20024;-84
2023/03/08 06:35:43;;;;;;;34.67;18.73;;;;;;;0.74;100.00;99627.75;4889068;29;20501;-84
2023/03/08 06:38:09;;;;;;;36.92;19.80;;;;;;;0.71;100.00;99638.63;4884932;29;20088;-85
2023/03/08 06:40:34;;;;;;;40.08;20.27;;;;;;;0.46;100.00;99633.06;4873253;29;20389;-85
2023/03/08 06:43:00;;;;;;;39.70;20.15;;;;;;;0.55;100.00;99633.78;4874304;29;20485;-85
2023/03/08 06:45:26;;;;;;;41.58;21.08;;;;;;;0.44;100.00;99629.84;4876659;29;20048;-85
2023/03/08 06:47:51;;;;;;;42.63;23.40;;;;;;;0.24;100.00;99630.72;4891884;29;20033;-85
2023/03/08 06:50:17;;;;;;;46.72;23.92;;;;;;;-0.13;100.00;99627.81;4870220;29;20037;-85
2023/03/08 06:52:42;;;;;;;47.03;21.55;;;;;;;-0.27;100.00;99634.41;4891415;29;20040;-87
2023/03/08 06:55:08;;;;;;;39.35;20.25;;;;;;;0.24;100.00;99625.22;4889307;29;20087;-86
2023/03/08 06:57:34;;;;;;;40.85;22.42;;;;;;;0.08;100.00;99628.59;4890736;29;20574;-85
2023/03/08 07:00:00;;;;;;;45.22;22.00;;;;;;;0.30;100.00;99621.09;4884881;29;20045;-86
2023/03/08 07:02:25;;;;;;;44.25;22.08;;;;;;;0.24;100.00;99623.25;4876261;29;20405;-85
2023/03/08 07:04:51;;;;;;;44.75;22.42;;;;;;;1.65;100.00;99621.13;4875415;29;20139;-88
2023/03/08 07:07:16;;;;;;;49.10;23.98;;;;;;;1.78;100.00;99625.47;4875570;29;20366;-83
2023/03/08 07:09:41;;;;;;;44.38;20.63;;;;;;;1.21;100.00;99629.25;4873916;29;20100;-83
2023/03/08 07:12:07;;;;;;;40.08;21.17;;;;;;;0.79;100.00;99633.00;4895755;29;20036;-85
2023/03/08 07:14:32;;;;;;;46.40;23.88;;;;;;;0.58;100.00;99641.34;4875556;29;20032;-85
2023/03/08 07:16:58;;;;;;;45.00;21.13;;;;;;;0.44;100.00;99629.03;4892442;29;20036;-85
2023/03/08 07:19:23;;;;;;;47.08;23.20;;;;;;;0.33;100.00;99631.44;4878700;29;20047;-85
2023/03/08 07:21:49;;;;;;;49.40;23.30;;;;;;;0.70;100.00;99634.28;4894097;29;20470;-86
2023/03/08 07:24:14;;;;;;;52.70;23.55;;;;;;;0.20;100.00;99631.38;4876783;29;20025;-86
2023/03/08 07:26:39;;;;;;;46.47;21.48;;;;;;;0.42;100.00;99640.38;4875701;29;20032;-85
2023/03/08 07:29:05;;;;;;;46.88;24.25;;;;;;;0.69;100.00;99629.91;4890086;29;20043;-83
2023/03/08 07:31:34;;;;;;;52.92;23.65;;;;;;;0.77;100.00;99626.25;4889940;29;20037;-86
2023/03/08 07:34:00;;;;;;;47.97;22.60;;;;;;;-0.05;100.00;99627.72;4878224;29;20508;-86
2023/03/08 07:36:25;;;;;;;53.55;24.83;;;;;;;0.09;100.00;99629.41;4892286;29;20075;-85
2023/03/08 07:38:50;;;;;;;50.10;23.80;;;;;;;0.27;100.00;99636.34;4895028;29;20060;-85
2023/03/08 07:41:16;;;;;;;47.58;21.90;;;;;;;0.32;100.00;99627.09;4896252;29;20036;-85
2023/03/08 07:43:42;;;;;;;52.22;24.52;;;;;;;0.53;100.00;99627.81;4877275;29;20116;-85
2023/03/08 07:46:07;;;;;;;49.13;24.88;;;;;;;0.58;100.00;99629.53;4895384;29;20047;-85
2023/03/08 07:48:33;;;;;;;48.78;23.08;;;;;;;0.37;100.00;99630.41;4895224;29;20536;-85
2023/03/08 07:51:06;;;;;;;53.50;24.35;;;;;;;0.17;100.00;99626.56;4880034;29;20452;-86
2023/03/08 07:53:31;;;;;;;;;;;;;;;0.46;100.00;99633.06;4890483;29;20036;-85
2023/03/08 07:55:58;;;;;;;55.67;23.13;;;;;;;0.24;100.00;99625.22;4896495;29;19983;-85
2023/03/08 07:58:24;;;;;;;54.20;22.90;;;;;;;0.11;100.00;99616.13;4901258;29;20025;-85
2023/03/08 08:00:49;;;;;;;51.88;24.33;;;;;;;0.04;100.00;99626.84;4870615;29;20045;-85
2023/03/08 08:03:14;;;;;;;56.75;24.20;;;;;;;-0.35;100.00;99613.28;4873564;29;20028;-85
2023/03/08 08:05:39;;;;;;;54.55;23.85;;;;;;;-0.01;100.00;99611.34;4880015;29;20043;-85
2023/03/08 08:08:05;;;;;;;51.70;23.02;;;;;;;0.10;100.00;99614.50;4892190;29;20037;-85
2023/03/08 08:10:30;;;;;;;48.38;23.15;;;;;;;-0.12;100.00;99601.94;4876752;29;20040;-85
2023/03/08 08:12:56;;;;;;;49.83;23.95;;;;;;;0.23;100.00;99596.06;4877974;29;20496;-85
2023/03/08 08:15:24;;;;;;;51.83;24.50;;;;;;;0.35;100.00;99601.63;4875125;29;20033;-85
2023/03/08 08:17:49;;;;;;;52.28;24.98;;;;;;;0.02;100.00;99593.38;4881177;29;20028;-85
2023/03/08 08:20:15;;;;;;;42.53;21.67;;;;;;;0.29;100.00;99589.22;4881397;29;20032;-84
2023/03/08 08:22:40;;;;;;;47.35;23.73;;;;;;;0.32;100.00;99599.56;4875412;29;20036;-84
2023/03/08 08:25:07;;;;;;;47.65;23.95;;;;;;;0.29;100.00;99590.00;4894326;29;20372;-84
2023/03/08 08:27:32;;;;;;;52.10;24.20;;;;;;;0.47;100.00;99581.56;4877578;29;20482;-85
2023/03/08 08:29:58;;;;;;;53.35;25.02;;;;;;;0.00;100.00;99588.22;4901845;29;20043;-84
2023/03/08 08:32:24;;;;;;;51.65;24.05;;;;;;;0.32;100.00;99583.03;4876037;29;20024;-85
2023/03/08 08:34:49;;;;;;;57.00;25.58;;;;;;;0.31;100.00;99581.41;4884849;29;20029;-85
2023/03/08 08:37:15;;;;;;;54.50;22.83;;;;;;;0.16;100.00;99575.41;4879307;29;20056;-85
2023/03/08 08:39:41;;;;;;;53.22;24.52;;;;;;;0.58;100.00;99578.03;4893198;29;20028;-85
2023/03/08 08:42:06;;;;;;;51.55;23.90;;;;;;;0.03;100.00;99571.03;4880247;29;20044;-84
2023/03/08 08:44:32;;;;;;;54.55;23.42;;;;;;;-0.08;100.00;99564.34;4893156;29;20040;-84
2023/03/08 08:46:57;;;;;;;49.33;22.77;;;;;;;0.34;100.00;99583.50;4870316;29;20036;-85
2023/03/08 08:49:23;;;;;;;48.22;21.48;;;;;;;0.25;100.00;99574.53;4870690;29;20056;-84
2023/03/08 08:51:48;;;;;;;51.65;22.77;;;;;;;-0.07;100.00;99571.44;4873546;29;20036;-84
2023/03/08 08:54:14;;;;;;;47.00;23.50;;;;;;;0.09;100.00;99574.38;4888091;29;20563;-84
2023/03/08 08:56:41;;;;;;;52.35;24.90;;;;;;;0.33;100.00;99566.16;4874494;29;20033;-84
2023/03/08 08:59:10;;;;;;;56.03;25.05;;;;;;;0.50;100.00;99573.41;4881913;29;20025;-83
2023/03/08 09:01:38;;;;;;;56.45;26.02;;;;;;;0.56;100.00;99560.25;4894177;29;20083;-84
2023/03/08 09:04:04;;;;;;;50.65;23.80;;;;;;;0.08;100.00;99567.25;4878031;29;20089;-83
2023/03/08 09:06:30;;;;;;;53.80;24.23;;;;;;;0.15;100.00;99562.81;4895749;29;20032;-83
2023/03/08 09:08:57;;;;;;;49.35;23.80;;;;;;;0.11;100.00;99561.88;4893540;29;20032;-84
2023/03/08 09:11:24;;;;;;;56.47;26.00;;;;;;;0.42;100.00;99563.31;4876476;29;20068;-84
2023/03/08 09:13:49;;;;;;;54.22;24.88;;;;;;;0.51;100.00;99563.22;4876656;29;20096;-84
2023/03/08 09:16:20;;;;;;;54.10;25.55;;;;;;;0.32;100.00;99555.53;4869278;29;20489;-83
2023/03/08 09:18:46;;;;;;;51.47;22.50;;;;;;;0.66;100.00;99554.28;4887833;29;20654;-84
2023/03/08 09:21:13;;;;;;;52.85;22.63;;;;;;;0.74;100.00;99549.81;4894952;29;20032;-83
2023/03/08 09:23:38;;;;;;;59.20;26.63;;;;;;;0.32;100.00;99558.28;4892741;29;20029;-84
2023/03/08 09:26:05;;;;;;;56.00;24.33;;;;;;;0.44;100.00;99558.25;4884767;29;20055;-83
2023/03/08 09:28:31;;;;;;;58.67;24.88;;;;;;;0.49;100.00;99540.75;4893529;29;20022;-84
2023/03/08 09:30:56;;;;;;;60.28;24.63;;;;;;;0.57;100.00;99546.13;4877054;29;20040;-84
2023/03/08 09:33:22;;;;;;;64.22;27.00;;;;;;;0.54;100.00;99546.81;4900807;29;20036;-84
2023/03/08 09:35:55;;;;;;;63.55;25.70;;;;;;;0.64;100.00;99545.56;4890079;29;20043;-84
2023/03/08 09:38:20;;;;;;;68.45;26.83;;;;;;;0.63;100.00;99543.16;4877616;29;20072;-84
2023/03/08 09:41:02;;;;;;;62.38;25.63;;;;;;;0.56;100.00;99550.03;4893264;29;20036;-84
2023/03/08 09:43:57;;;;;;;64.68;25.95;;;;;;;0.70;100.00;99549.69;4874871;29;20438;-84
2023/03/08 09:46:29;;;;;;;55.55;23.75;;;;;;;0.79;100.00;99535.81;4854136;29;20432;-84
2023/03/08 09:48:59;;;;;;;64.45;25.42;;;;;;;0.56;100.00;99539.00;4876704;29;20497;-84
2023/03/08 09:51:32;;;;;;;61.10;24.15;;;;;;;0.53;100.00;99525.94;4874862;29;20193;-84
2023/03/08 09:54:05;;;;;;;57.40;27.08;;;;;;;0.87;100.00;99521.13;4877046;29;20028;-85
2023/03/08 09:56:40;;;;;;;59.15;24.13;;;;;;;0.67;100.00;99517.31;4875736;29;20057;-84
2023/03/08 09:59:28;;;;;;;60.90;26.15;;;;;;;0.74;100.00;99516.78;4875230;29;20040;-84
2023/03/08 10:02:00;;;;;;;62.45;26.08;;;;;;;0.81;100.00;99505.97;4882862;29;20048;-84
2023/03/08 10:04:33;;;;;;;61.67;26.13;;;;;;;0.91;100.00;99505.50;4894501;29;20127;-84
2023/03/08 10:07:11;;;;;;;61.00;25.88;;;;;;;0.78;100.00;99501.13;4887535;29;20393;-85
2023/03/08 10:09:42;;;;;;;58.20;25.52;;;;;;;1.01;100.00;99502.28;4879058;29;20032;-85
2023/03/08 10:12:29;;;;;;;65.68;27.52;;;;;;;1.19;100.00;99496.47;4879920;29;20472;-85
2023/03/08 10:15:10;;;;;;;64.93;24.58;;;;;;;1.36;100.00;99495.41;4882812;29;20433;-85
2023/03/08 10:17:51;;;;;;;54.67;23.30;;;;;;;1.45;100.00;99503.53;4876751;29;20096;-86
2023/03/08 10:20:33;;;;;;;53.38;22.95;;;;;;;1.24;100.00;99501.75;4880622;29;20036;-85
2023/03/08 10:23:19;;;;;;;56.20;23.60;;;;;;;1.17;100.00;99490.50;4867269;29;20485;-87
2023/03/08 10:25:46;;;;;;;51.00;21.75;;;;;;;1.51;100.00;99493.84;4891591;29;20437;-86
2023/03/08 10:28:18;;;;;;;47.33;19.30;;;;;;;1.54;100.00;99487.63;4891258;29;20032;-85
2023/03/08 10:30:53;;;;;;;48.45;19.80;;;;;;;1.38;100.00;99491.13;4892604;29;20588;-86
2023/03/08 10:33:21;;;;;;;45.40;20.48;;;;;;;1.48;100.00;99489.84;4880889;29;20123;-85
2023/03/08 10:35:58;;;;;;;43.85;18.65;;;;;;;1.58;100.00;99483.84;4876721;29;20060;-85
2023/03/08 10:38:31;;;;;;;48.15;19.13;;;;;;;1.81;100.00;99469.44;4892876;29;20479;-86
2023/03/08 10:41:13;;;;;;;44.78;20.45;;;;;;;1.85;100.00;99469.56;4879225;29;20545;-86
2023/03/08 10:43:44;;;;;;;43.95;18.63;;;;;;;1.94;100.00;99461.91;4895517;29;20043;-86
2023/03/08 10:46:44;;;;;;;57.72;22.05;;;;;;;1.99;100.00;99467.16;4897107;29;20166;-86
2023/03/08 10:49:15;;;;;;;48.53;19.25;;;;;;;1.96;100.00;99470.63;4890220;29;20496;-86
2023/03/08 10:51:57;;;;;;;53.20;21.25;;;;;;;1.73;100.00;99451.91;4876394;29;20036;-86
2023/03/08 10:54:23;;;;;;;50.80;19.33;;;;;;;1.88;100.00;99457.78;4868457;29;20422;-86
2023/03/08 10:56:52;;;;;;;55.03;20.95;;;;;;;1.99;100.00;99465.19;4883383;29;20025;-86
2023/03/08 10:59:33;;;;;;;52.55;19.33;;;;;;;2.11;100.00;99455.22;4891935;29;20568;-87
2023/03/08 11:02:07;;;;;;;51.08;23.77;;;;;;;2.03;100.00;99452.31;4871511;29;20084;-87
2023/03/08 11:04:33;;;;;;;54.33;20.88;;;;;;;2.06;100.00;99442.50;4882509;29;20068;-86
2023/03/08 11:07:09;;;;;;;46.08;17.13;;;;;;;2.23;100.00;99446.88;4864345;29;20083;-87
2023/03/08 11:09:35;;;;;;;40.97;18.27;;;;;;;2.27;100.00;99444.19;4859979;29;20366;-87
2023/03/08 11:12:01;;;;;;;43.83;18.02;;;;;;;2.29;100.00;99441.88;4857862;29;20129;-87
2023/03/08 11:14:28;;;;;;;45.33;16.33;;;;;;;2.36;100.00;99439.28;4859486;29;20119;-87
2023/03/08 11:17:12;;;;;;;44.45;18.05;;;;;;;2.52;100.00;99437.31;4860916;29;20041;-87
2023/03/08 11:19:41;;;;;;;40.70;16.55;;;;;;;2.51;100.00;99435.72;4856650;29;20089;-87
2023/03/08 11:22:41;;;;;;;48.40;18.35;;;;;;;2.64;100.00;99423.38;4872478;29;20064;-87
2023/03/08 11:25:31;;;;;;;34.83;14.68;;;;;;;2.62;100.00;99411.09;4864103;29;20053;-88
2023/03/08 11:28:00;;;;;;;38.35;14.75;;;;;;;2.83;100.00;99413.53;4856572;29;20032;-87